Time;durP1;ratioP1;P1;durP2;ratioP2;P2;SDS_P1;SDS_P2;PMS_P1;PMS_P2;Temp;Humidity;BMP_temperature;BMP_pressure;BME280_temperature;BME280_humidity;BME280_pressure;Samples;Min_cycle;Max_cycle;Signal;HPM_P1;HPM_P2
2021/10/11 00:00:52;;;;;;;13.20;2.37;;;12.70;99.90;;;;;;4894779;29;20239;-86
2021/10/11 00:03:19;;;;;;;6.63;1.97;;;12.60;99.90;;;;;;4895374;29;20246;-85
2021/10/11 00:05:47;;;;;;;14.60;1.90;;;12.60;99.90;;;;;;4895369;29;20212;-85
2021/10/11 00:08:14;;;;;;;7.70;2.23;;;12.60;99.90;;;;;;4895159;29;20238;-89
2021/10/11 00:10:41;;;;;;;11.50;2.03;;;12.60;99.90;;;;;;4894862;29;20872;-84
2021/10/11 00:13:08;;;;;;;11.93;2.40;;;12.60;99.90;;;;;;4878570;29;20218;-83
2021/10/11 00:15:34;;;;;;;10.53;2.13;;;12.60;99.90;;;;;;4894422;29;20223;-82
2021/10/11 00:18:01;;;;;;;14.57;2.80;;;12.60;99.90;;;;;;4894493;29;20207;-85
2021/10/11 00:20:28;;;;;;;10.30;2.03;;;12.60;99.90;;;;;;4894252;29;20215;-82
2021/10/11 00:22:56;;;;;;;9.93;2.50;;;12.50;99.90;;;;;;4895017;29;20214;-86
2021/10/11 00:25:23;;;;;;;6.93;2.00;;;12.50;99.90;;;;;;4894551;29;20214;-87
2021/10/11 00:27:50;;;;;;;13.80;3.53;;;12.50;99.90;;;;;;4895759;29;20760;-83
2021/10/11 00:30:17;;;;;;;11.90;2.30;;;12.50;99.90;;;;;;4895772;29;20206;-87
2021/10/11 00:32:47;;;;;;;10.27;2.47;;;12.50;99.90;;;;;;4894374;29;20207;-84
2021/10/11 00:35:14;;;;;;;6.90;2.20;;;12.50;99.90;;;;;;4894803;29;20215;-86
2021/10/11 00:37:41;;;;;;;15.17;2.93;;;12.40;99.90;;;;;;4895254;29;20210;-85
2021/10/11 00:40:11;;;;;;;8.80;1.90;;;12.50;99.90;;;;;;4895213;29;20219;-87
2021/10/11 00:42:38;;;;;;;12.50;2.47;;;12.40;99.90;;;;;;4894607;29;20211;-86
2021/10/11 00:45:06;;;;;;;9.07;2.50;;;12.40;99.90;;;;;;4894938;29;20215;-84
2021/10/11 00:47:33;;;;;;;7.37;2.17;;;12.30;99.90;;;;;;4890233;29;20227;-86
2021/10/11 00:50:00;;;;;;;9.70;2.23;;;12.30;99.90;;;;;;4893619;29;20246;-85
2021/10/11 00:52:27;;;;;;;11.73;1.87;;;12.30;99.90;;;;;;4894635;29;20214;-86
2021/10/11 00:54:54;;;;;;;10.47;3.00;;;12.20;99.90;;;;;;4894659;29;20215;-83
2021/10/11 00:57:23;;;;;;;7.87;1.90;;;12.10;99.90;;;;;;4899298;29;20207;-86
2021/10/11 00:59:50;;;;;;;6.33;2.33;;;12.10;99.90;;;;;;4914135;29;20281;-85
2021/10/11 01:02:17;;;;;;;10.93;2.13;;;12.00;99.90;;;;;;4914869;29;20217;-86
2021/10/11 01:04:43;;;;;;;5.23;2.03;;;12.00;99.90;;;;;;4915640;29;20640;-84
2021/10/11 01:07:11;;;;;;;7.40;2.03;;;11.90;99.90;;;;;;4917352;29;20701;-84
2021/10/11 01:09:38;;;;;;;6.47;1.47;;;11.90;99.90;;;;;;4918834;29;20235;-85
2021/10/11 01:12:05;;;;;;;7.87;1.60;;;11.90;99.90;;;;;;4917512;29;20203;-85
2021/10/11 01:14:33;;;;;;;6.43;1.67;;;11.80;99.90;;;;;;4915991;29;20205;-85
2021/10/11 01:17:00;;;;;;;9.27;2.27;;;11.80;99.90;;;;;;4915990;29;20278;-83
2021/10/11 01:19:26;;;;;;;4.60;1.60;;;11.80;99.90;;;;;;4915484;29;20202;-83
2021/10/11 01:21:55;;;;;;;9.77;2.43;;;11.80;99.90;;;;;;4914308;29;20214;-86
2021/10/11 01:24:22;;;;;;;7.70;1.80;;;11.90;99.90;;;;;;4909449;29;20218;-86
2021/10/11 01:26:48;;;;;;;10.63;2.30;;;12.00;99.90;;;;;;4897747;29;20203;-85
2021/10/11 01:29:17;;;;;;;7.00;1.60;;;11.90;99.90;;;;;;4896928;29;20235;-85
2021/10/11 01:31:45;;;;;;;7.27;1.53;;;11.90;99.90;;;;;;4897419;29;20207;-86
2021/10/11 01:34:12;;;;;;;8.47;1.97;;;11.90;99.90;;;;;;4897111;29;20206;-84
2021/10/11 01:36:39;;;;;;;5.37;1.53;;;12.00;99.90;;;;;;4896920;29;20208;-83
2021/10/11 01:39:09;;;;;;;8.20;1.70;;;12.00;99.90;;;;;;4897925;29;20207;-83
2021/10/11 01:41:37;;;;;;;12.50;2.43;;;12.00;99.90;;;;;;4916049;29;20238;-84
2021/10/11 01:44:05;;;;;;;7.73;1.73;;;12.00;99.90;;;;;;4915231;29;20229;-85
2021/10/11 01:46:32;;;;;;;6.80;1.70;;;12.10;99.90;;;;;;4912914;29;20589;-86
2021/10/11 01:48:59;;;;;;;7.77;1.90;;;12.20;99.90;;;;;;4896428;29;20227;-84
2021/10/11 01:51:25;;;;;;;6.00;1.60;;;12.20;99.90;;;;;;4896506;29;20303;-87
2021/10/11 01:53:52;;;;;;;6.80;2.03;;;12.20;99.90;;;;;;4896413;29;20590;-81
2021/10/11 01:56:20;;;;;;;7.07;2.07;;;12.20;99.90;;;;;;4896353;29;20211;-84
2021/10/11 01:58:47;;;;;;;7.17;1.70;;;12.20;99.90;;;;;;4896343;29;20496;-82
2021/10/11 02:01:14;;;;;;;7.07;2.37;;;12.10;99.90;;;;;;4896113;29;20215;-83
2021/10/11 02:03:41;;;;;;;5.73;1.60;;;12.10;99.90;;;;;;4895817;29;20509;-83
2021/10/11 02:06:08;;;;;;;7.37;1.80;;;12.00;99.90;;;;;;4896208;29;20211;-82
2021/10/11 02:08:35;;;;;;;5.77;1.40;;;11.90;99.90;;;;;;4895973;29;20242;-85
2021/10/11 02:11:01;;;;;;;7.60;1.93;;;11.80;99.90;;;;;;4895794;29;20243;-85
2021/10/11 02:13:30;;;;;;;7.83;1.50;;;11.80;99.90;;;;;;4894445;29;20207;-85
2021/10/11 02:15:57;;;;;;;5.80;1.37;;;11.90;99.90;;;;;;4894975;29;20221;-85
2021/10/11 02:18:23;;;;;;;12.17;1.90;;;11.80;99.90;;;;;;4909497;29;20236;-85
2021/10/11 02:20:50;;;;;;;8.53;1.77;;;11.80;99.90;;;;;;4911403;29;20202;-85
2021/10/11 02:23:17;;;;;;;4.93;1.77;;;11.70;99.90;;;;;;4915121;29;20214;-86
2021/10/11 02:25:44;;;;;;;5.47;1.53;;;11.70;99.90;;;;;;4906481;29;20225;-86
2021/10/11 02:28:11;;;;;;;6.20;1.80;;;11.70;99.90;;;;;;4896582;29;20238;-85
2021/10/11 02:30:39;;;;;;;5.73;1.33;;;11.70;99.90;;;;;;4895926;29;20211;-85
2021/10/11 02:33:05;;;;;;;9.10;1.67;;;11.60;99.90;;;;;;4895883;29;20224;-83
2021/10/11 02:35:33;;;;;;;10.13;1.63;;;11.60;99.90;;;;;;4896028;29;20210;-85
2021/10/11 02:37:59;;;;;;;6.73;1.50;;;11.70;99.90;;;;;;4905309;29;20675;-84
2021/10/11 02:40:26;;;;;;;9.77;1.60;;;11.70;99.90;;;;;;4905097;29;20210;-84
2021/10/11 02:42:53;;;;;;;11.00;1.80;;;11.70;99.90;;;;;;4895814;29;20207;-84
2021/10/11 02:45:21;;;;;;;6.20;1.60;;;11.70;99.90;;;;;;4895918;29;20212;-84
2021/10/11 02:47:49;;;;;;;8.30;2.20;;;11.80;99.90;;;;;;4894429;29;20203;-85
2021/10/11 02:50:16;;;;;;;6.70;1.53;;;11.80;99.90;;;;;;4891767;29;20255;-85
2021/10/11 02:52:42;;;;;;;7.87;1.47;;;11.90;99.90;;;;;;4893000;29;20799;-84
2021/10/11 02:55:09;;;;;;;7.60;1.40;;;12.00;99.90;;;;;;4894774;29;20643;-84
2021/10/11 02:57:36;;;;;;;6.37;1.50;;;11.90;99.90;;;;;;4895147;29;20211;-84
2021/10/11 03:00:04;;;;;;;7.27;1.70;;;11.90;99.90;;;;;;4894453;29;20215;-85
2021/10/11 03:02:31;;;;;;;7.93;1.60;;;11.90;99.90;;;;;;4894875;29;20278;-84
2021/10/11 03:04:59;;;;;;;7.83;1.63;;;11.90;99.90;;;;;;4903601;29;20210;-84
2021/10/11 03:07:26;;;;;;;9.80;2.00;;;11.90;99.90;;;;;;4913949;29;20210;-84
2021/10/11 03:09:53;;;;;;;9.20;2.00;;;11.90;99.90;;;;;;4907087;29;20239;-84
2021/10/11 03:12:20;;;;;;;7.60;1.70;;;12.00;99.90;;;;;;4895245;29;20226;-84
2021/10/11 03:14:46;;;;;;;5.33;1.80;;;12.00;99.90;;;;;;4894979;29;20509;-85
2021/10/11 03:17:13;;;;;;;12.00;1.80;;;12.10;99.90;;;;;;4894970;29;20222;-82
2021/10/11 03:19:40;;;;;;;8.47;1.80;;;12.10;99.90;;;;;;4913303;23;20246;-85
2021/10/11 03:22:09;;;;;;;7.63;1.63;;;12.10;99.90;;;;;;4913811;29;20211;-85
2021/10/11 03:24:35;;;;;;;4.87;1.53;;;12.20;99.90;;;;;;4909376;29;20215;-84
2021/10/11 03:27:03;;;;;;;8.70;2.13;;;12.30;99.90;;;;;;4894142;29;20211;-84
2021/10/11 03:29:29;;;;;;;7.67;1.80;;;12.30;99.90;;;;;;4893213;29;20227;-85
2021/10/11 03:31:56;;;;;;;8.60;2.23;;;12.40;99.90;;;;;;4896881;29;20203;-89
2021/10/11 03:34:23;;;;;;;6.70;1.60;;;12.40;99.90;;;;;;4896377;29;20207;-86
2021/10/11 03:36:50;;;;;;;9.40;1.70;;;12.50;99.90;;;;;;4894240;29;20214;-85
2021/10/11 03:39:19;;;;;;;8.33;1.83;;;12.50;99.90;;;;;;4894665;29;20215;-85
2021/10/11 03:41:45;;;;;;;5.87;1.60;;;12.50;99.90;;;;;;4894615;29;20200;-84
2021/10/11 03:44:13;;;;;;;7.90;1.97;;;12.60;99.90;;;;;;4894455;29;20208;-87
2021/10/11 03:46:40;;;;;;;7.83;1.57;;;12.70;99.90;;;;;;4894723;29;20377;-86
2021/10/11 03:49:07;;;;;;;9.97;2.40;;;12.70;99.90;;;;;;4904280;29;20234;-87
2021/10/11 03:51:34;;;;;;;6.20;2.33;;;12.80;99.90;;;;;;4911946;29;20207;-84
2021/10/11 03:54:01;;;;;;;10.60;2.23;;;12.80;99.90;;;;;;4914424;29;20206;-85
2021/10/11 03:56:29;;;;;;;7.30;1.80;;;12.80;99.90;;;;;;4911330;29;20206;-85
2021/10/11 03:58:56;;;;;;;7.73;1.50;;;12.80;99.90;;;;;;4894296;29;20207;-84
2021/10/11 04:01:23;;;;;;;9.80;2.17;;;12.80;99.90;;;;;;4893464;29;20198;-84
2021/10/11 04:03:50;;;;;;;8.77;2.40;;;12.80;99.90;;;;;;4894888;29;20219;-85
2021/10/11 04:06:17;;;;;;;8.10;1.97;;;12.80;99.90;;;;;;4894964;29;20271;-85
2021/10/11 04:08:46;;;;;;;7.67;1.80;;;12.80;99.90;;;;;;4894130;29;20325;-85
2021/10/11 04:11:23;;;;;;;12.50;2.83;;;12.70;99.90;;;;;;4894849;29;20207;-82
2021/10/11 04:13:51;;;;;;;8.80;2.07;;;12.60;99.90;;;;;;4909402;29;20211;-84
2021/10/11 04:16:18;;;;;;;9.03;2.00;;;12.60;99.90;;;;;;4911010;29;20229;-84
2021/10/11 04:18:45;;;;;;;13.40;2.67;;;12.60;99.90;;;;;;4910986;29;20241;-86
2021/10/11 04:21:12;;;;;;;11.60;1.97;;;12.60;99.90;;;;;;4898595;29;20211;-84
2021/10/11 04:23:39;;;;;;;8.37;1.57;;;12.70;99.90;;;;;;4893921;29;20518;-87
2021/10/11 04:26:06;;;;;;;12.03;1.97;;;12.80;99.90;;;;;;4893256;29;20222;-82
2021/10/11 04:28:33;;;;;;;8.60;1.73;;;12.80;99.90;;;;;;4894157;29;20219;-81
2021/10/11 04:31:01;;;;;;;9.97;1.60;;;12.80;99.90;;;;;;4894402;29;20608;-84
2021/10/11 04:33:28;;;;;;;9.23;1.87;;;12.80;99.90;;;;;;4893888;29;20211;-85
2021/10/11 04:35:55;;;;;;;6.47;1.70;;;12.80;99.90;;;;;;4894505;29;20206;-84
2021/10/11 04:38:22;;;;;;;7.77;1.90;;;12.80;99.90;;;;;;4897273;29;20998;-82
2021/10/11 04:40:48;;;;;;;7.00;2.03;;;12.80;99.90;;;;;;4897784;29;20211;-85
2021/10/11 04:43:15;;;;;;;5.73;1.60;;;12.90;99.90;;;;;;4897429;29;20207;-87
2021/10/11 04:45:42;;;;;;;7.33;1.87;;;12.90;99.90;;;;;;4916523;29;20223;-85
2021/10/11 04:48:11;;;;;;;6.23;1.63;;;12.90;99.90;;;;;;4923690;23;20247;-83
2021/10/11 04:50:39;;;;;;;9.80;1.57;;;12.90;99.90;;;;;;4912293;29;20204;-85
2021/10/11 04:53:06;;;;;;;8.97;1.60;;;12.90;99.90;;;;;;4897535;29;20200;-85
2021/10/11 04:55:33;;;;;;;9.30;1.60;;;12.90;99.90;;;;;;4897327;29;20226;-86
2021/10/11 04:58:00;;;;;;;10.37;1.43;;;12.90;99.90;;;;;;4897779;29;20219;-85
2021/10/11 05:00:28;;;;;;;10.63;2.17;;;12.90;99.90;;;;;;4897088;29;20208;-83
2021/10/11 05:02:54;;;;;;;10.10;1.67;;;13.00;99.90;;;;;;4897226;29;20218;-84
2021/10/11 05:05:23;;;;;;;10.10;2.30;;;13.10;99.90;;;;;;4898130;29;20207;-84
2021/10/11 05:07:50;;;;;;;9.43;2.47;;;13.10;99.90;;;;;;4895983;29;20298;-83
2021/10/11 05:10:17;;;;;;;7.33;1.80;;;13.20;99.90;;;;;;4897032;29;20235;-84
2021/10/11 05:12:43;;;;;;;9.63;2.00;;;13.30;99.90;;;;;;4897389;29;20777;-87
2021/10/11 05:15:10;;;;;;;8.17;1.90;;;13.30;99.90;;;;;;4897629;29;20210;-85
2021/10/11 05:17:38;;;;;;;7.47;1.67;;;13.20;99.90;;;;;;4896917;29;20204;-84
2021/10/11 05:20:06;;;;;;;9.10;2.00;;;13.10;99.90;;;;;;4896151;29;20280;-83
2021/10/11 05:22:35;;;;;;;7.47;1.90;;;13.00;99.90;;;;;;4892569;29;20213;-82
2021/10/11 05:25:01;;;;;;;8.13;1.83;;;13.00;99.90;;;;;;4898123;29;20270;-84
2021/10/11 05:27:28;;;;;;;11.87;2.43;;;13.00;99.90;;;;;;4897051;29;20860;-84
2021/10/11 05:29:55;;;;;;;8.33;2.27;;;13.00;99.90;;;;;;4897782;29;20230;-85
2021/10/11 05:32:22;;;;;;;9.50;2.03;;;13.00;99.90;;;;;;4897267;29;20223;-83
2021/10/11 05:34:49;;;;;;;9.83;1.77;;;13.00;99.90;;;;;;4897589;29;20198;-85
2021/10/11 05:37:16;;;;;;;7.10;1.93;;;13.00;99.90;;;;;;4897900;29;20207;-84
2021/10/11 05:39:44;;;;;;;9.10;2.43;;;13.00;99.90;;;;;;4897070;29;20675;-84
2021/10/11 05:42:11;;;;;;;6.60;1.97;;;13.10;99.90;;;;;;4895690;29;20204;-87
2021/10/11 05:44:38;;;;;;;7.13;1.63;;;13.00;99.90;;;;;;4892961;29;20214;-83
2021/10/11 05:47:05;;;;;;;12.30;2.40;;;13.10;99.90;;;;;;4895856;29;20207;-86
2021/10/11 05:49:32;;;;;;;5.83;1.43;;;13.10;99.90;;;;;;4894948;29;20282;-85
2021/10/11 05:51:59;;;;;;;6.83;2.23;;;13.10;99.90;;;;;;4895545;29;20207;-84
2021/10/11 05:54:27;;;;;;;4.10;1.30;;;13.10;99.90;;;;;;4878704;29;20207;-83
2021/10/11 05:56:56;;;;;;;8.10;1.50;;;13.10;99.90;;;;;;4894989;29;20243;-84
2021/10/11 05:59:23;;;;;;;5.57;1.50;;;13.10;99.90;;;;;;4894228;29;20204;-85
2021/10/11 06:01:50;;;;;;;7.60;2.10;;;13.20;99.90;;;;;;4895831;29;20499;-85
2021/10/11 06:04:17;;;;;;;11.33;1.50;;;13.20;99.90;;;;;;4899228;29;20211;-86
2021/10/11 06:06:44;;;;;;;6.27;1.50;;;13.20;99.90;;;;;;4913905;29;20217;-85
2021/10/11 06:09:11;;;;;;;4.53;1.50;;;13.20;99.90;;;;;;4913582;29;20559;-84
2021/10/11 06:11:39;;;;;;;6.03;1.50;;;13.20;99.90;;;;;;4911905;29;20217;-84
2021/10/11 06:14:07;;;;;;;8.83;1.97;;;13.20;99.90;;;;;;4892167;29;20215;-84
2021/10/11 06:16:34;;;;;;;9.10;2.00;;;13.20;99.90;;;;;;4891963;29;20218;-82
2021/10/11 06:19:01;;;;;;;11.93;2.90;;;13.20;99.90;;;;;;4891796;29;20200;-81
2021/10/11 06:21:28;;;;;;;8.33;1.90;;;13.30;99.90;;;;;;4891248;29;20203;-83
2021/10/11 06:23:55;;;;;;;6.60;2.23;;;13.40;99.90;;;;;;4891772;29;20219;-85
2021/10/11 06:26:22;;;;;;;12.27;1.83;;;13.40;99.90;;;;;;4892051;29;20213;-82
2021/10/11 06:28:49;;;;;;;11.57;2.20;;;13.40;99.90;;;;;;4891738;29;20211;-84
2021/10/11 06:31:17;;;;;;;9.20;2.00;;;13.50;99.90;;;;;;4891723;29;20204;-83
2021/10/11 06:33:44;;;;;;;6.27;1.93;;;13.50;99.90;;;;;;4890879;29;20215;-81
2021/10/11 06:36:12;;;;;;;9.20;2.20;;;13.50;99.90;;;;;;4891479;29;20203;-81
2021/10/11 06:38:38;;;;;;;7.63;2.30;;;13.50;99.90;;;;;;4905426;29;20229;-81
2021/10/11 06:41:05;;;;;;;10.17;2.47;;;13.40;99.90;;;;;;4902555;29;20222;-82
2021/10/11 06:43:32;;;;;;;10.30;2.10;;;13.40;99.90;;;;;;4890837;29;20508;-82
2021/10/11 06:45:59;;;;;;;7.80;2.33;;;13.50;99.90;;;;;;4891880;29;20203;-84
2021/10/11 06:48:27;;;;;;;10.43;2.57;;;13.50;99.90;;;;;;4892534;29;20239;-87
2021/10/11 06:50:54;;;;;;;11.27;2.10;;;13.60;99.90;;;;;;4892045;29;20703;-85
2021/10/11 06:53:21;;;;;;;9.70;2.33;;;13.60;99.90;;;;;;4890574;29;20712;-83
2021/10/11 06:55:48;;;;;;;12.50;3.13;;;13.60;99.90;;;;;;4898026;29;20215;-84
2021/10/11 06:58:15;;;;;;;11.77;2.50;;;13.70;99.90;;;;;;4912880;29;20214;-83
2021/10/11 07:00:41;;;;;;;8.33;2.17;;;13.80;99.90;;;;;;4910373;29;20373;-86
2021/10/11 07:03:09;;;;;;;8.77;2.20;;;13.80;99.90;;;;;;4913322;29;20210;-83
2021/10/11 07:05:37;;;;;;;5.63;1.90;;;13.80;99.90;;;;;;4912534;29;20222;-83
2021/10/11 07:08:09;;;;;;;9.90;2.40;;;13.80;99.90;;;;;;4910690;29;20223;-83
2021/10/11 07:10:36;;;;;;;10.27;2.00;;;13.80;99.90;;;;;;4910368;29;20219;-85
2021/10/11 07:13:04;;;;;;;8.00;1.70;;;13.80;99.90;;;;;;4907594;29;20263;-82
2021/10/11 07:15:31;;;;;;;10.67;2.43;;;13.80;99.90;;;;;;4909406;29;20211;-83
2021/10/11 07:17:59;;;;;;;6.23;1.73;;;13.80;99.90;;;;;;4906532;29;20515;-85
2021/10/11 07:20:26;;;;;;;8.87;2.00;;;13.80;99.90;;;;;;4908646;29;20211;-82
2021/10/11 07:22:54;;;;;;;8.97;2.20;;;13.80;99.90;;;;;;4906037;29;20214;-82
2021/10/11 07:25:21;;;;;;;6.73;1.40;;;13.90;99.90;;;;;;4908132;29;20215;-83
2021/10/11 07:27:49;;;;;;;5.03;1.57;;;13.90;99.90;;;;;;4906761;29;20222;-80
2021/10/11 07:30:16;;;;;;;8.70;1.70;;;13.80;99.90;;;;;;4907323;29;20282;-81
2021/10/11 07:32:43;;;;;;;12.40;2.40;;;13.80;99.90;;;;;;4907417;29;20861;-81
2021/10/11 07:35:10;;;;;;;8.50;2.10;;;13.80;99.90;;;;;;4907239;29;20229;-81
2021/10/11 07:37:37;;;;;;;8.80;2.33;;;13.90;99.90;;;;;;4907171;29;20213;-87
2021/10/11 07:40:07;;;;;;;7.07;1.97;;;13.90;99.90;;;;;;4905807;29;20210;-80
2021/10/11 07:42:33;;;;;;;7.43;1.57;;;14.00;99.90;;;;;;4906993;29;20207;-81
2021/10/11 07:45:02;;;;;;;6.57;1.53;;;14.00;99.90;;;;;;4907828;29;20214;-80
2021/10/11 07:47:29;;;;;;;11.87;2.33;;;14.10;99.90;;;;;;4903617;29;20545;-81
2021/10/11 07:49:56;;;;;;;7.47;1.70;;;14.10;99.90;;;;;;4906767;29;20238;-83
2021/10/11 07:52:22;;;;;;;6.13;1.73;;;14.30;99.90;;;;;;4905508;29;20213;-84
2021/10/11 07:54:49;;;;;;;8.77;1.60;;;14.30;99.90;;;;;;4906334;29;20207;-81
2021/10/11 07:57:17;;;;;;;5.73;1.70;;;14.30;99.90;;;;;;4902915;29;20221;-82
2021/10/11 07:59:44;;;;;;;6.00;1.40;;;14.40;99.90;;;;;;4905599;29;20210;-86
2021/10/11 08:02:11;;;;;;;7.57;1.70;;;14.50;99.90;;;;;;4906603;29;20214;-82
2021/10/11 08:04:38;;;;;;;7.20;1.87;;;14.50;99.90;;;;;;4905925;29;20206;-82
2021/10/11 08:07:05;;;;;;;7.20;1.70;;;14.60;99.90;;;;;;4906397;29;20214;-80
2021/10/11 08:09:32;;;;;;;9.73;2.33;;;14.60;99.90;;;;;;4907048;29;20226;-83
2021/10/11 08:11:58;;;;;;;9.47;2.07;;;14.60;99.90;;;;;;4893892;29;20222;-81
2021/10/11 08:14:27;;;;;;;6.80;1.63;;;14.70;99.90;;;;;;4893332;29;20850;-89
2021/10/11 08:16:53;;;;;;;9.83;1.63;;;14.70;99.90;;;;;;4892564;29;20221;-84
2021/10/11 08:19:20;;;;;;;10.10;1.83;;;14.80;99.90;;;;;;4910882;29;20211;-85
2021/10/11 08:21:47;;;;;;;7.53;1.73;;;14.80;99.90;;;;;;4912873;29;20206;-82
2021/10/11 08:24:15;;;;;;;7.57;2.03;;;14.90;99.90;;;;;;4919392;29;20584;-89
2021/10/11 08:26:42;;;;;;;7.57;1.80;;;14.90;99.90;;;;;;4906059;29;20222;-86
2021/10/11 08:29:09;;;;;;;11.50;2.13;;;14.90;99.90;;;;;;4902557;29;20211;-92
2021/10/11 08:31:37;;;;;;;8.77;2.00;;;14.90;99.90;;;;;;4896186;29;20231;-81
2021/10/11 08:34:05;;;;;;;8.80;2.03;;;14.90;99.90;;;;;;4896863;29;20207;-88
2021/10/11 08:36:32;;;;;;;8.10;1.40;;;14.90;99.90;;;;;;4896243;29;20230;-77
2021/10/11 08:38:59;;;;;;;8.97;1.20;;;14.80;99.90;;;;;;4896898;29;20211;-86
2021/10/11 08:41:26;;;;;;;6.80;1.77;;;14.70;99.90;;;;;;4910567;29;20568;-87
2021/10/11 08:43:53;;;;;;;8.30;1.77;;;14.70;99.90;;;;;;4916421;29;20205;-86
2021/10/11 08:46:20;;;;;;;6.20;1.50;;;14.70;99.90;;;;;;4900744;29;20534;-92
2021/10/11 08:48:48;;;;;;;8.23;1.73;;;14.70;99.90;;;;;;4897336;29;20254;-88
2021/10/11 08:51:15;;;;;;;7.40;2.07;;;14.70;99.90;;;;;;4896241;29;20242;-86
2021/10/11 08:53:42;;;;;;;8.73;1.63;;;14.70;99.90;;;;;;4895328;29;20208;-85
2021/10/11 08:56:11;;;;;;;8.30;1.40;;;14.60;99.90;;;;;;4895703;29;20219;-85
2021/10/11 08:58:45;;;;;;;5.47;1.57;;;14.60;99.90;;;;;;4895920;29;20234;-83
2021/10/11 09:01:13;;;;;;;9.80;2.00;;;14.70;99.90;;;;;;4896803;29;20215;-86
2021/10/11 09:03:40;;;;;;;5.53;1.50;;;14.70;99.90;;;;;;4898034;29;20208;-84
2021/10/11 09:06:11;;;;;;;10.57;1.80;;;14.70;99.90;;;;;;4897965;29;20215;-86
2021/10/11 09:08:40;;;;;;;10.07;1.57;;;14.80;99.90;;;;;;4898232;29;20231;-85
2021/10/11 09:11:08;;;;;;;5.40;1.20;;;14.90;99.90;;;;;;4898039;29;20239;-85
2021/10/11 09:13:39;;;;;;;5.27;1.50;;;14.90;99.90;;;;;;4895396;29;20211;-84
2021/10/11 09:16:09;;;;;;;5.47;1.57;;;14.90;99.90;;;;;;4896391;29;20680;-87
2021/10/11 09:18:37;;;;;;;3.73;1.23;;;14.90;99.90;;;;;;4895537;29;20242;-84
2021/10/11 09:21:05;;;;;;;4.00;1.20;;;14.90;99.90;;;;;;4896489;29;20199;-84
2021/10/11 09:23:33;;;;;;;7.07;1.60;;;15.00;99.90;;;;;;4895533;29;20323;-82
2021/10/11 09:26:01;;;;;;;7.17;1.40;;;15.00;99.90;;;;;;4897415;29;20212;-83
2021/10/11 09:28:29;;;;;;;5.13;1.80;;;15.20;99.90;;;;;;4894717;29;20215;-83
2021/10/11 09:30:55;;;;;;;7.23;1.87;;;15.30;99.90;;;;;;4895798;29;20231;-89
2021/10/11 09:33:24;;;;;;;8.23;1.33;;;15.30;99.90;;;;;;4895547;29;20207;-81
2021/10/11 09:35:52;;;;;;;7.27;1.73;;;15.40;99.90;;;;;;4896477;29;20214;-87
2021/10/11 09:38:21;;;;;;;6.47;1.50;;;15.60;99.90;;;;;;4896717;29;20206;-83
2021/10/11 09:40:53;;;;;;;8.10;1.70;;;15.70;99.90;;;;;;4895465;29;20226;-85
2021/10/11 09:43:22;;;;;;;4.47;1.47;;;15.80;99.90;;;;;;4896190;29;20858;-86
2021/10/11 09:45:50;;;;;;;7.45;1.90;;;15.80;99.90;;;;;;4895973;29;20514;-87
2021/10/11 09:48:17;;;;;;;6.40;1.33;;;15.90;99.90;;;;;;4895475;29;20249;-85
2021/10/11 09:50:45;;;;;;;4.87;1.23;;;15.90;99.90;;;;;;4894898;29;20511;-83
2021/10/11 09:53:14;;;;;;;4.50;1.20;;;16.10;99.90;;;;;;4893080;29;20226;-81
2021/10/11 09:55:41;;;;;;;8.13;1.70;;;16.20;99.90;;;;;;4893014;29;20216;-84
2021/10/11 09:58:11;;;;;;;6.07;1.83;;;16.20;99.90;;;;;;4894668;29;20916;-84
2021/10/11 10:00:38;;;;;;;4.20;1.23;;;16.40;99.90;;;;;;4895913;29;20218;-85
2021/10/11 10:03:05;;;;;;;8.27;1.57;;;16.40;99.90;;;;;;4908249;29;20215;-84
2021/10/11 10:05:36;;;;;;;6.10;1.27;;;16.50;99.90;;;;;;4910702;29;20234;-83
2021/10/11 10:08:07;;;;;;;6.70;2.03;;;16.60;99.90;;;;;;4911878;29;20235;-84
2021/10/11 10:10:35;;;;;;;5.22;1.33;;;16.60;99.90;;;;;;4914034;29;20785;-82
2021/10/11 10:13:02;;;;;;;9.48;1.90;;;16.60;99.90;;;;;;4912852;29;20217;-81
2021/10/11 10:15:32;;;;;;;5.68;1.50;;;16.60;99.90;;;;;;4910524;29;20211;-84
2021/10/11 10:18:04;;;;;;;6.80;1.40;;;16.70;99.90;;;;;;4897405;29;20869;-87
2021/10/11 10:20:31;;;;;;;4.95;1.30;;;16.80;99.90;;;;;;4896236;29;20215;-85
2021/10/11 10:22:59;;;;;;;8.43;1.52;;;16.80;99.90;;;;;;4901991;29;20218;-87
2021/10/11 10:25:26;;;;;;;7.07;1.52;;;16.90;99.90;;;;;;4915864;29;20194;-89
2021/10/11 10:28:07;;;;;;;8.00;1.60;;;17.00;99.90;;;;;;4915936;29;20580;-90
2021/10/11 10:30:36;;;;;;;5.55;1.85;;;17.00;99.90;;;;;;4897240;29;20233;-88
2021/10/11 10:33:05;;;;;;;9.85;1.40;;;17.00;99.90;;;;;;4899044;29;20211;-87
2021/10/11 10:35:44;;;;;;;3.42;1.27;;;17.00;99.90;;;;;;4899344;29;20211;-84
2021/10/11 10:38:21;;;;;;;6.28;1.73;;;17.10;99.90;;;;;;4901902;29;20199;-86
2021/10/11 10:40:49;;;;;;;9.80;1.60;;;17.10;99.90;;;;;;4901436;29;20510;-85
2021/10/11 10:43:18;;;;;;;8.77;1.75;;;17.10;99.90;;;;;;4901093;29;20214;-85
2021/10/11 10:45:49;;;;;;;3.42;1.40;;;17.10;99.90;;;;;;4900647;29;20298;-84
2021/10/11 10:48:21;;;;;;;6.07;1.23;;;17.10;99.90;;;;;;4901773;29;20255;-88
2021/10/11 10:50:48;;;;;;;7.00;1.20;;;17.10;99.90;;;;;;4901663;29;20244;-84
2021/10/11 10:53:15;;;;;;;8.95;1.52;;;17.20;99.90;;;;;;4901880;29;20203;-89
2021/10/11 10:55:43;;;;;;;10.20;2.17;;;17.10;99.90;;;;;;4901343;29;20204;-86
2021/10/11 10:58:13;;;;;;;6.95;1.80;;;17.20;99.90;;;;;;4901418;29;20203;-87
2021/10/11 11:00:41;;;;;;;7.05;2.00;;;17.30;99.90;;;;;;4900759;29;20208;-81
2021/10/11 11:03:13;;;;;;;11.52;2.08;;;17.40;99.90;;;;;;4901273;29;20318;-85
2021/10/11 11:05:42;;;;;;;9.82;1.55;;;17.30;99.90;;;;;;4900982;29;20298;-85
2021/10/11 11:08:09;;;;;;;7.05;2.00;;;17.30;99.90;;;;;;4901379;29;20314;-84
2021/10/11 11:10:37;;;;;;;10.50;1.88;;;17.20;99.90;;;;;;4919853;29;20242;-83
2021/10/11 11:13:07;;;;;;;8.35;1.80;;;17.30;99.90;;;;;;4919857;29;20213;-83
2021/10/11 11:15:35;;;;;;;13.27;2.20;;;17.30;99.90;;;;;;4910986;29;20567;-86
2021/10/11 11:18:05;;;;;;;11.90;2.50;;;17.40;99.90;;;;;;4901171;29;20242;-86
2021/10/11 11:20:35;;;;;;;6.90;1.75;;;17.50;99.90;;;;;;4900354;29;20227;-84
2021/10/11 11:23:05;;;;;;;8.18;2.15;;;17.50;99.90;;;;;;4901402;29;20624;-85
2021/10/11 11:25:35;;;;;;;14.88;1.80;;;17.50;99.90;;;;;;4901000;29;20274;-84
2021/10/11 11:28:04;;;;;;;5.25;1.15;;;17.40;99.90;;;;;;4900342;29;20211;-87
2021/10/11 11:30:31;;;;;;;8.32;1.77;;;17.50;99.90;;;;;;4900966;29;20478;-83
2021/10/11 11:33:03;;;;;;;5.47;1.45;;;17.60;99.90;;;;;;4900855;29;20199;-82
2021/10/11 11:35:34;;;;;;;8.10;2.20;;;17.50;99.90;;;;;;4901809;29;20206;-85
2021/10/11 11:38:02;;;;;;;10.35;1.85;;;17.60;99.90;;;;;;4901702;29;20471;-83
2021/10/11 11:40:31;;;;;;;5.50;1.50;;;17.60;99.90;;;;;;4900241;29;20208;-85
2021/10/11 11:42:59;;;;;;;8.68;1.70;;;17.60;99.90;;;;;;4900429;29;20237;-83
2021/10/11 11:45:38;;;;;;;4.90;1.73;;;17.50;99.90;;;;;;4901238;29;20203;-84
2021/10/11 11:48:07;;;;;;;7.68;1.67;;;17.50;99.90;;;;;;4900082;29;20247;-79
2021/10/11 11:50:35;;;;;;;9.00;2.10;;;17.60;99.90;;;;;;4900042;29;20218;-82
2021/10/11 11:53:05;;;;;;;9.77;1.60;;;17.50;99.90;;;;;;4900564;29;20223;-85
2021/10/11 11:55:32;;;;;;;5.93;1.80;;;17.60;99.90;;;;;;4900235;29;20210;-83
2021/10/11 11:58:00;;;;;;;5.93;1.70;;;17.70;99.90;;;;;;4900276;29;20211;-81
2021/10/11 12:00:30;;;;;;;10.40;1.75;;;17.60;99.90;;;;;;4900755;29;20203;-83
2021/10/11 12:02:57;;;;;;;8.35;1.80;;;17.50;99.90;;;;;;4900131;29;20639;-82
2021/10/11 12:05:25;;;;;;;7.60;1.50;;;17.40;99.90;;;;;;4900262;29;20207;-86
2021/10/11 12:07:55;;;;;;;9.55;1.90;;;17.30;99.90;;;;;;4899988;29;20227;-85
2021/10/11 12:10:25;;;;;;;5.05;1.67;;;17.30;99.90;;;;;;4889332;29;20282;-83
2021/10/11 12:13:00;;;;;;;5.82;1.45;;;17.30;99.90;;;;;;4918951;29;20249;-82
2021/10/11 12:15:27;;;;;;;6.82;1.35;;;17.20;99.90;;;;;;4918932;29;20211;-81
2021/10/11 12:18:09;;;;;;;5.72;1.45;;;17.20;99.90;;;;;;4901266;29;20199;-84
2021/10/11 12:20:44;;;;;;;7.90;1.60;;;17.20;99.90;;;;;;4904298;29;20271;-83
2021/10/11 12:23:12;;;;;;;6.05;1.40;;;17.10;99.90;;;;;;4918393;29;20607;-84
2021/10/11 12:25:40;;;;;;;7.72;1.85;;;17.00;99.90;;;;;;4918830;29;20215;-84
2021/10/11 12:28:12;;;;;;;8.85;1.70;;;17.10;99.90;;;;;;4910471;29;20215;-83
2021/10/11 12:30:39;;;;;;;7.07;2.38;;;17.10;99.90;;;;;;4899723;29;20195;-83
2021/10/11 12:33:13;;;;;;;4.03;1.15;;;17.10;99.90;;;;;;4899809;29;20238;-85
2021/10/11 12:35:40;;;;;;;5.85;1.58;;;17.20;99.90;;;;;;4900336;29;20203;-84
2021/10/11 12:38:09;;;;;;;4.53;1.10;;;17.10;99.90;;;;;;4899307;29;20210;-81
2021/10/11 12:40:38;;;;;;;4.43;1.17;;;17.10;99.90;;;;;;4899760;29;20218;-82
2021/10/11 12:43:14;;;;;;;5.65;1.45;;;17.10;99.90;;;;;;4899838;29;20199;-84
2021/10/11 12:45:41;;;;;;;12.07;1.80;;;17.10;99.90;;;;;;4899521;29;20217;-82
2021/10/11 12:48:08;;;;;;;8.25;1.70;;;17.10;99.90;;;;;;4900149;29;20543;-84